createdAt,value
2022-12-03T00:02:10.831Z,25.73
2022-12-03T00:04:37.328Z,28.30
2022-12-03T00:07:03.646Z,33.30
2022-12-03T00:09:29.932Z,34.60
2022-12-03T00:11:56.213Z,30.13
2022-12-03T00:14:22.494Z,31.50
2022-12-03T00:16:49.021Z,37.00
2022-12-03T00:19:15.398Z,34.47
2022-12-03T00:21:41.664Z,30.55
2022-12-03T00:24:08.246Z,40.40
2022-12-03T00:26:34.517Z,34.42
2022-12-03T00:29:00.796Z,35.58
2022-12-03T00:31:27.162Z,33.58
2022-12-03T00:33:53.580Z,36.10
2022-12-03T00:36:20.082Z,38.05
2022-12-03T00:38:46.453Z,35.95
2022-12-03T00:41:13.049Z,37.88
2022-12-03T00:43:39.357Z,41.40
2022-12-03T00:46:05.904Z,36.17
2022-12-03T00:48:32.249Z,35.05
2022-12-03T00:50:58.644Z,37.70
2022-12-03T00:53:24.936Z,35.97
2022-12-03T00:55:51.668Z,40.40
2022-12-03T00:58:18.336Z,43.97
2022-12-03T01:00:44.615Z,45.50
2022-12-03T01:03:10.864Z,43.25
2022-12-03T01:05:37.312Z,42.28
2022-12-03T01:08:03.735Z,46.15
2022-12-03T01:10:30.063Z,44.25
2022-12-03T01:12:56.432Z,44.35
2022-12-03T01:15:22.754Z,44.03
2022-12-03T01:17:49.010Z,45.63
2022-12-03T01:20:15.325Z,41.42
2022-12-03T01:22:41.649Z,35.67
2022-12-03T01:25:08.087Z,42.72
2022-12-03T01:27:34.342Z,34.55
2022-12-03T01:30:00.609Z,46.03
2022-12-03T01:32:26.903Z,38.33
2022-12-03T01:34:54.406Z,42.70
2022-12-03T01:37:22.670Z,40.35
2022-12-03T01:39:49.219Z,43.60
2022-12-03T01:42:17.370Z,37.10
2022-12-03T01:44:44.499Z,43.78
2022-12-03T01:47:13.604Z,42.83
2022-12-03T01:49:43.212Z,40.45
2022-12-03T01:52:12.100Z,34.85
2022-12-03T01:54:41.107Z,36.03
2022-12-03T01:57:14.373Z,46.10
2022-12-03T01:59:40.659Z,42.95
2022-12-03T02:02:23.849Z,42.38
2022-12-03T02:04:51.237Z,40.22
2022-12-03T02:07:19.044Z,38.17
2022-12-03T02:09:45.383Z,41.10
2022-12-03T02:12:12.298Z,41.25
2022-12-03T02:14:38.713Z,46.67
2022-12-03T02:17:04.996Z,42.75
2022-12-03T02:19:31.286Z,47.60
2022-12-03T02:22:05.500Z,43.83
2022-12-03T02:24:34.757Z,51.33
2022-12-03T02:27:01.053Z,45.03
2022-12-03T02:29:27.353Z,46.70
2022-12-03T02:31:53.784Z,41.90
2022-12-03T02:34:38.748Z,40.50
2022-12-03T02:37:06.228Z,43.75
2022-12-03T02:39:33.512Z,42.53
2022-12-03T02:42:18.294Z,46.53
2022-12-03T02:44:44.708Z,46.83
2022-12-03T02:47:11.154Z,43.78
2022-12-03T02:49:37.498Z,47.75
2022-12-03T02:52:03.858Z,41.47
2022-12-03T02:54:30.181Z,41.20
2022-12-03T02:56:56.463Z,48.28
2022-12-03T02:59:22.834Z,38.83
2022-12-03T03:01:49.386Z,40.88
2022-12-03T03:04:15.814Z,44.92
2022-12-03T03:06:42.153Z,48.67
2022-12-03T03:09:08.429Z,38.75
2022-12-03T03:11:34.731Z,41.38
2022-12-03T03:14:01.953Z,40.15
2022-12-03T03:16:28.326Z,42.88
2022-12-03T03:18:54.784Z,49.25
2022-12-03T03:21:21.412Z,41.95
2022-12-03T03:23:47.713Z,45.72
2022-12-03T03:26:14.461Z,46.20
2022-12-03T03:28:42.560Z,38.70
2022-12-03T03:31:10.866Z,36.78
2022-12-03T03:33:39.177Z,37.92
2022-12-03T03:36:06.441Z,39.63
2022-12-03T03:38:32.871Z,38.90
2022-12-03T03:41:01.392Z,39.88
2022-12-03T03:43:28.589Z,40.80
2022-12-03T03:45:55.458Z,39.05
2022-12-03T03:48:22.347Z,38.72
2022-12-03T03:50:49.451Z,34.38
2022-12-03T03:53:16.317Z,38.67
2022-12-03T03:55:42.710Z,39.22
2022-12-03T03:58:09.041Z,39.45
2022-12-03T04:00:35.825Z,39.33
2022-12-03T04:03:03.570Z,35.78
2022-12-03T04:05:29.945Z,30.65
2022-12-03T04:07:56.265Z,41.17
2022-12-03T04:10:41.190Z,34.60
2022-12-03T04:13:07.497Z,33.00
2022-12-03T04:15:33.953Z,33.28
2022-12-03T04:18:18.944Z,33.17
2022-12-03T04:20:45.227Z,29.88
2022-12-03T04:23:11.501Z,38.42
2022-12-03T04:26:00.738Z,32.58
2022-12-03T04:28:45.401Z,28.83
2022-12-03T04:31:30.323Z,28.67
2022-12-03T04:34:15.107Z,29.42
2022-12-03T04:36:41.392Z,28.67
2022-12-03T04:39:07.666Z,27.05
2022-12-03T04:41:33.954Z,29.75
2022-12-03T04:44:18.856Z,29.58
2022-12-03T04:46:45.148Z,28.70
2022-12-03T04:49:11.403Z,30.38
2022-12-03T04:51:37.743Z,31.70
2022-12-03T04:54:04.018Z,31.05
2022-12-03T04:56:30.388Z,34.25
2022-12-03T04:58:56.658Z,32.47
2022-12-03T05:01:23.044Z,24.98
2022-12-03T05:03:49.416Z,29.27
2022-12-03T05:06:15.687Z,32.05
2022-12-03T05:08:41.944Z,33.13
2022-12-03T05:11:08.228Z,31.33
2022-12-03T05:13:34.508Z,32.00
2022-12-03T05:16:00.849Z,31.83
2022-12-03T05:18:27.114Z,33.83
2022-12-03T05:20:53.857Z,29.05
2022-12-03T05:23:20.473Z,28.92
2022-12-03T05:25:46.867Z,34.75
2022-12-03T05:28:13.148Z,27.73
2022-12-03T05:30:39.482Z,29.20
2022-12-03T05:33:05.914Z,25.33
2022-12-03T05:35:32.198Z,31.65
2022-12-03T05:37:58.487Z,26.15
2022-12-03T05:40:25.029Z,24.75
2022-12-03T05:42:54.105Z,28.05
2022-12-03T05:45:21.721Z,23.95
2022-12-03T05:47:48.127Z,24.35
2022-12-03T05:50:14.824Z,23.40
2022-12-03T05:52:41.115Z,26.60
2022-12-03T05:55:07.836Z,26.83
2022-12-03T05:57:34.161Z,25.13
2022-12-03T06:00:00.455Z,24.60
2022-12-03T06:02:26.859Z,29.33
2022-12-03T06:04:53.527Z,22.67
2022-12-03T06:07:20.083Z,24.60
2022-12-03T06:09:46.397Z,21.45
2022-12-03T06:12:12.672Z,23.50
2022-12-03T06:14:38.972Z,24.80
2022-12-03T06:17:05.373Z,19.63
2022-12-03T06:19:31.640Z,25.02
2022-12-03T06:21:57.958Z,24.33
2022-12-03T06:24:24.237Z,19.90
2022-12-03T06:26:50.580Z,22.05
2022-12-03T06:29:16.917Z,21.83
2022-12-03T06:31:43.322Z,22.77
2022-12-03T06:34:09.686Z,18.48
2022-12-03T06:36:35.970Z,22.30
2022-12-03T06:39:02.251Z,18.45
2022-12-03T06:41:28.530Z,17.50
2022-12-03T06:43:54.803Z,20.38
2022-12-03T06:46:21.231Z,24.15
2022-12-03T06:48:47.578Z,19.60
2022-12-03T06:51:13.861Z,20.42
2022-12-03T06:53:40.128Z,14.40
2022-12-03T06:56:06.561Z,16.33
2022-12-03T06:58:32.849Z,18.63
2022-12-03T07:00:59.162Z,15.38
2022-12-03T07:03:25.550Z,16.33
2022-12-03T07:05:51.882Z,21.17
2022-12-03T07:08:18.198Z,15.55
2022-12-03T07:10:44.555Z,17.67
2022-12-03T07:13:10.853Z,17.17
2022-12-03T07:15:37.257Z,16.10
2022-12-03T07:18:03.548Z,13.65
2022-12-03T07:20:29.825Z,18.90
2022-12-03T07:22:56.097Z,16.27
2022-12-03T07:25:23.717Z,15.95
2022-12-03T07:27:50.501Z,18.98
2022-12-03T07:30:16.933Z,11.65
2022-12-03T07:32:43.247Z,12.63
2022-12-03T07:35:09.986Z,14.02
2022-12-03T07:37:36.463Z,15.77
2022-12-03T07:40:03.266Z,13.20
2022-12-03T07:42:29.551Z,17.75
2022-12-03T07:44:56.040Z,14.98
2022-12-03T07:47:22.548Z,15.90
2022-12-03T07:49:48.831Z,16.52
2022-12-03T07:52:15.128Z,11.68
2022-12-03T07:54:41.395Z,12.43
2022-12-03T07:57:07.680Z,11.43
2022-12-03T07:59:49.005Z,23.67
2022-12-03T08:02:20.966Z,11.43
2022-12-03T08:04:47.987Z,11.32
2022-12-03T08:07:14.269Z,13.02
2022-12-03T08:09:40.782Z,11.50
2022-12-03T08:12:14.621Z,14.15
2022-12-03T08:14:40.905Z,13.77
2022-12-03T08:17:10.899Z,14.15
2022-12-03T08:19:37.153Z,11.35
2022-12-03T08:22:10.237Z,13.43
2022-12-03T08:24:36.511Z,12.32
2022-12-03T08:27:05.321Z,13.60
2022-12-03T08:29:31.602Z,16.73
2022-12-03T08:31:58.286Z,11.77
2022-12-03T08:34:27.024Z,12.23
2022-12-03T08:36:57.889Z,15.63
2022-12-03T08:39:33.522Z,14.82
2022-12-03T08:42:37.544Z,13.95
2022-12-03T08:45:24.359Z,14.48
2022-12-03T08:47:50.693Z,18.92
2022-12-03T08:50:27.512Z,17.70
2022-12-03T08:52:54.797Z,16.38
2022-12-03T08:55:36.912Z,15.80
2022-12-03T08:58:16.178Z,20.00
2022-12-03T09:00:42.797Z,16.63
2022-12-03T09:03:12.809Z,15.23
2022-12-03T09:05:39.115Z,15.18
2022-12-03T09:08:05.441Z,19.85
2022-12-03T09:10:31.795Z,16.35
2022-12-03T09:12:58.156Z,16.35
2022-12-03T09:15:24.516Z,16.70
2022-12-03T09:17:50.889Z,20.42
2022-12-03T09:20:17.228Z,17.73
2022-12-03T09:22:43.527Z,17.13
2022-12-03T09:25:09.909Z,14.80
2022-12-03T09:27:36.224Z,17.13
2022-12-03T09:30:02.705Z,16.90
2022-12-03T09:32:29.013Z,17.60
2022-12-03T09:34:55.732Z,18.15
2022-12-03T09:37:22.358Z,18.45
2022-12-03T09:39:48.663Z,18.73
2022-12-03T09:42:15.417Z,17.85
2022-12-03T09:44:41.766Z,17.52
2022-12-03T09:47:09.095Z,19.40
2022-12-03T09:49:36.848Z,20.45
2022-12-03T09:52:04.120Z,23.45
2022-12-03T09:54:32.132Z,20.85
2022-12-03T09:57:00.031Z,22.80
2022-12-03T09:59:27.650Z,27.35
2022-12-03T10:01:54.232Z,22.65
2022-12-03T10:04:20.794Z,27.70
2022-12-03T10:06:47.625Z,27.25
2022-12-03T10:09:14.619Z,27.63
2022-12-03T10:11:40.949Z,23.38
2022-12-03T10:14:07.222Z,25.13
2022-12-03T10:16:35.913Z,28.35
2022-12-03T10:19:02.274Z,28.77
2022-12-03T10:21:34.546Z,29.88
2022-12-03T10:24:19.539Z,32.83
2022-12-03T10:26:46.494Z,36.67
2022-12-03T10:29:13.778Z,33.40
2022-12-03T10:31:40.472Z,29.05
2022-12-03T10:34:06.748Z,27.60
2022-12-03T10:36:33.226Z,34.88
2022-12-03T10:39:12.230Z,33.13
2022-12-03T10:41:39.457Z,32.75
2022-12-03T10:44:11.912Z,38.85
2022-12-03T10:46:38.387Z,37.42
2022-12-03T10:49:13.888Z,33.72
2022-12-03T10:51:40.377Z,34.75
2022-12-03T10:54:14.300Z,38.97
2022-12-03T10:56:40.814Z,37.17
2022-12-03T10:59:10.046Z,36.83
2022-12-03T11:01:36.720Z,38.20
2022-12-03T11:04:04.386Z,36.55
2022-12-03T11:06:31.988Z,42.45
2022-12-03T11:09:03.805Z,35.92
2022-12-03T11:11:33.336Z,39.25
2022-12-03T11:14:00.476Z,43.22
2022-12-03T11:16:39.070Z,36.75
2022-12-03T11:19:18.914Z,43.30
2022-12-03T11:22:03.289Z,35.78
2022-12-03T11:24:29.738Z,45.33
2022-12-03T11:26:56.021Z,40.55
2022-12-03T11:29:40.818Z,40.75
2022-12-03T11:32:07.106Z,38.45
2022-12-03T11:34:33.358Z,42.60
2022-12-03T11:37:11.802Z,50.47
2022-12-03T11:39:56.633Z,40.33
2022-12-03T11:42:26.047Z,39.70
2022-12-03T11:45:04.788Z,40.00
2022-12-03T11:47:32.633Z,36.90
2022-12-03T11:49:58.910Z,36.00
2022-12-03T11:52:32.222Z,43.05
2022-12-03T11:55:04.290Z,40.88
2022-12-03T11:57:32.964Z,44.15
2022-12-03T12:00:00.397Z,43.65
2022-12-03T12:02:26.790Z,43.83
2022-12-03T12:04:53.101Z,47.78
2022-12-03T12:07:35.462Z,43.83
2022-12-03T12:10:01.832Z,39.33
2022-12-03T12:12:29.986Z,41.38
2022-12-03T12:14:56.643Z,43.80
2022-12-03T12:17:49.164Z,42.35
2022-12-03T12:20:27.755Z,43.13
2022-12-03T12:22:54.858Z,49.63
2022-12-03T12:25:30.441Z,44.20
2022-12-03T12:27:56.944Z,46.33
2022-12-03T12:30:24.008Z,46.60
2022-12-03T12:32:51.966Z,39.20
2022-12-03T12:35:22.921Z,47.50
2022-12-03T12:37:56.644Z,37.55
2022-12-03T12:40:26.837Z,46.83
2022-12-03T12:42:54.271Z,47.67
2022-12-03T12:45:21.644Z,40.95
2022-12-03T12:47:48.422Z,40.30
2022-12-03T12:50:15.356Z,41.25
2022-12-03T12:52:53.189Z,37.40
2022-12-03T12:55:19.998Z,41.03
2022-12-03T12:57:46.416Z,47.13
2022-12-03T13:00:20.347Z,46.53
2022-12-03T13:02:51.003Z,39.70
2022-12-03T13:05:17.669Z,45.05
2022-12-03T13:07:44.714Z,47.40
2022-12-03T13:10:20.380Z,43.20
2022-12-03T13:12:46.769Z,44.90
2022-12-03T13:15:31.856Z,46.22
2022-12-03T13:17:58.146Z,47.35
2022-12-03T13:20:24.504Z,43.03
2022-12-03T13:22:50.834Z,52.35
2022-12-03T13:25:57.272Z,50.65
2022-12-03T13:28:18.837Z,49.30
2022-12-03T13:30:45.376Z,52.35
2022-12-03T13:33:19.865Z,45.63
2022-12-03T13:35:46.558Z,51.97
2022-12-03T13:38:15.346Z,48.80
2022-12-03T13:40:41.849Z,52.10
2022-12-03T13:43:15.209Z,51.53
2022-12-03T13:45:43.472Z,52.80
2022-12-03T13:48:22.877Z,47.55
2022-12-03T13:50:49.454Z,55.85
2022-12-03T13:53:36.667Z,48.55
2022-12-03T13:56:02.905Z,45.80
2022-12-03T13:58:29.184Z,49.58
2022-12-03T14:00:55.501Z,41.47
2022-12-03T14:03:23.203Z,48.15
2022-12-03T14:06:20.399Z,46.33
2022-12-03T14:08:46.697Z,56.72
2022-12-03T14:11:31.444Z,51.08
2022-12-03T14:13:57.742Z,47.35
2022-12-03T14:16:24.417Z,43.15
2022-12-03T14:18:50.718Z,43.50
2022-12-03T14:21:16.987Z,52.90
2022-12-03T14:23:43.266Z,50.25
2022-12-03T14:26:09.546Z,36.67
2022-12-03T14:28:35.834Z,43.50
2022-12-03T14:31:02.137Z,46.78
2022-12-03T14:33:28.431Z,51.15
2022-12-03T14:35:55.982Z,42.17
2022-12-03T14:38:22.352Z,41.17
2022-12-03T14:40:48.640Z,43.45
2022-12-03T14:43:14.928Z,41.70
2022-12-03T14:45:41.317Z,39.80
2022-12-03T14:48:07.809Z,47.75
2022-12-03T14:50:34.180Z,45.58
2022-12-03T14:53:00.494Z,46.13
2022-12-03T14:55:26.805Z,39.95
2022-12-03T14:57:53.110Z,43.75
2022-12-03T15:00:19.622Z,43.20
2022-12-03T15:02:45.946Z,42.70
2022-12-03T15:05:12.330Z,41.17
2022-12-03T15:07:39.434Z,50.35
2022-12-03T15:10:06.757Z,44.40
2022-12-03T15:12:33.139Z,42.40
2022-12-03T15:14:59.561Z,40.25
2022-12-03T15:17:31.743Z,45.88
2022-12-03T15:19:58.529Z,40.95
2022-12-03T15:22:24.797Z,41.35
2022-12-03T15:24:51.085Z,43.55
2022-12-03T15:27:17.388Z,45.08
2022-12-03T15:29:43.756Z,42.80
2022-12-03T15:32:10.028Z,48.85
2022-12-03T15:34:36.394Z,44.90
2022-12-03T15:37:02.670Z,37.08
2022-12-03T15:39:29.525Z,49.85
2022-12-03T15:41:55.788Z,50.50
2022-12-03T15:44:22.079Z,38.60
2022-12-03T15:46:48.360Z,49.25
2022-12-03T15:49:14.687Z,46.08
2022-12-03T15:51:40.993Z,44.75
2022-12-03T15:54:07.366Z,54.28
2022-12-03T15:56:37.336Z,47.05
2022-12-03T15:59:03.758Z,37.47
2022-12-03T16:01:30.106Z,48.20
2022-12-03T16:03:56.433Z,47.97
2022-12-03T16:06:22.705Z,48.40
2022-12-03T16:08:48.990Z,45.65
2022-12-03T16:11:15.255Z,39.33
2022-12-03T16:13:41.534Z,49.72
2022-12-03T16:16:07.856Z,48.00
2022-12-03T16:18:34.203Z,45.22
2022-12-03T16:21:00.512Z,58.25
2022-12-03T16:23:26.822Z,44.03
2022-12-03T16:25:53.163Z,47.60
2022-12-03T16:28:19.441Z,52.42
2022-12-03T16:30:45.780Z,55.20
2022-12-03T16:33:12.134Z,49.13
2022-12-03T16:35:38.482Z,48.55
2022-12-03T16:38:04.764Z,58.10
2022-12-03T16:40:31.088Z,58.35
2022-12-03T16:42:57.420Z,58.83
2022-12-03T16:45:29.693Z,61.60
2022-12-03T16:47:56.030Z,51.28
2022-12-03T16:50:29.440Z,52.67
2022-12-03T16:52:56.346Z,50.33
2022-12-03T16:55:22.633Z,53.70
2022-12-03T16:57:49.161Z,55.72
2022-12-03T17:00:15.753Z,54.28
2022-12-03T17:02:42.123Z,57.60
2022-12-03T17:05:08.619Z,57.13
2022-12-03T17:07:35.010Z,54.42
2022-12-03T17:10:01.463Z,54.05
2022-12-03T17:12:37.617Z,55.45
2022-12-03T17:15:14.118Z,54.92
2022-12-03T17:17:40.375Z,49.70
2022-12-03T17:20:08.157Z,59.05
2022-12-03T17:22:34.560Z,53.63
2022-12-03T17:25:00.943Z,53.45
2022-12-03T17:27:27.288Z,55.42
2022-12-03T17:29:53.817Z,60.58
2022-12-03T17:32:20.276Z,58.38
2022-12-03T17:34:46.594Z,54.22
2022-12-03T17:37:12.856Z,51.88
2022-12-03T17:39:39.137Z,60.15
2022-12-03T17:42:05.416Z,59.63
2022-12-03T17:44:31.680Z,58.70
2022-12-03T17:46:58.010Z,59.15
2022-12-03T17:49:29.924Z,55.58
2022-12-03T17:51:57.705Z,64.45
2022-12-03T17:54:23.990Z,59.72
2022-12-03T17:56:50.272Z,63.55
2022-12-03T17:59:16.632Z,62.78
2022-12-03T18:01:43.639Z,67.13
2022-12-03T18:04:10.383Z,69.03
2022-12-03T18:06:36.931Z,59.15
2022-12-03T18:09:03.792Z,72.03
2022-12-03T18:11:30.307Z,66.82
2022-12-03T18:13:56.662Z,59.78
2022-12-03T18:16:22.982Z,64.43
2022-12-03T18:18:53.636Z,59.80
2022-12-03T18:21:22.683Z,65.10
2022-12-03T18:23:48.975Z,57.33
2022-12-03T18:26:15.322Z,66.15
2022-12-03T18:28:41.630Z,64.30
2022-12-03T18:31:14.417Z,61.00
2022-12-03T18:33:40.733Z,60.25
2022-12-03T18:36:14.811Z,60.00
2022-12-03T18:38:41.379Z,69.50
2022-12-03T18:41:07.662Z,72.70
2022-12-03T18:43:33.981Z,61.58
2022-12-03T18:46:00.268Z,72.13
2022-12-03T18:48:26.550Z,67.13
2022-12-03T18:50:52.850Z,68.32
2022-12-03T18:53:19.302Z,62.22
2022-12-03T18:55:46.460Z,70.38
2022-12-03T18:58:12.872Z,68.55
2022-12-03T19:00:39.464Z,65.68
2022-12-03T19:03:06.233Z,64.57
2022-12-03T19:05:33.368Z,68.78
2022-12-03T19:07:59.927Z,70.63
2022-12-03T19:10:26.358Z,67.03
2022-12-03T19:12:52.688Z,71.93
2022-12-03T19:15:19.044Z,66.53
2022-12-03T19:17:49.264Z,70.20
2022-12-03T19:20:15.595Z,64.65
2022-12-03T19:22:41.870Z,77.97
2022-12-03T19:25:08.307Z,80.95
2022-12-03T19:27:34.640Z,65.25
2022-12-03T19:30:00.920Z,60.45
2022-12-03T19:32:27.196Z,62.55
2022-12-03T19:34:53.513Z,65.15
2022-12-03T19:37:19.772Z,63.25
2022-12-03T19:39:46.475Z,63.88
2022-12-03T19:42:12.734Z,63.35
2022-12-03T19:44:39.223Z,59.83
2022-12-03T19:47:05.759Z,62.85
2022-12-03T19:49:32.280Z,63.90
2022-12-03T19:51:58.545Z,58.10
2022-12-03T19:54:24.931Z,57.20
2022-12-03T19:56:51.220Z,54.20
2022-12-03T19:59:17.502Z,55.92
2022-12-03T20:01:44.075Z,57.78
2022-12-03T20:04:11.105Z,56.08
2022-12-03T20:06:38.899Z,56.03
2022-12-03T20:09:06.481Z,55.17
2022-12-03T20:11:33.244Z,54.60
2022-12-03T20:14:00.690Z,62.65
2022-12-03T20:16:27.664Z,56.30
2022-12-03T20:19:00.725Z,52.58
2022-12-03T20:21:28.776Z,57.22
2022-12-03T20:23:55.080Z,56.13
2022-12-03T20:26:21.544Z,54.00
2022-12-03T20:28:48.184Z,55.72
2022-12-03T20:31:16.052Z,51.13
2022-12-03T20:33:43.941Z,55.60
2022-12-03T20:36:11.041Z,45.72
2022-12-03T20:38:37.495Z,59.67
2022-12-03T20:41:04.896Z,62.22
2022-12-03T20:43:31.159Z,52.85
2022-12-03T20:46:02.594Z,47.33
2022-12-03T20:48:29.497Z,56.55
2022-12-03T20:50:55.777Z,49.60
2022-12-03T20:53:25.663Z,52.53
2022-12-03T20:55:56.254Z,65.13
2022-12-03T21:00:48.846Z,65.93
2022-12-03T21:03:15.154Z,57.88
2022-12-03T21:05:42.560Z,60.13
2022-12-03T21:08:08.944Z,65.72
2022-12-03T21:10:45.121Z,55.33
2022-12-03T21:13:15.529Z,53.60
2022-12-03T21:15:42.342Z,56.08
2022-12-03T21:18:10.115Z,58.08
2022-12-03T21:20:43.103Z,56.60
2022-12-03T21:23:09.498Z,51.53
2022-12-03T21:25:36.729Z,48.88
2022-12-03T21:28:06.987Z,53.20
2022-12-03T21:30:33.656Z,51.65
2022-12-03T21:33:00.040Z,47.40
2022-12-03T21:35:26.413Z,50.47
2022-12-03T21:37:52.760Z,46.28
2022-12-03T21:40:19.350Z,49.70
2022-12-03T21:42:45.735Z,48.10
2022-12-03T21:45:12.030Z,43.85
2022-12-03T21:47:38.370Z,49.70
2022-12-03T21:50:09.380Z,48.47
2022-12-03T21:52:35.660Z,47.90
2022-12-03T21:55:01.937Z,40.33
2022-12-03T21:57:28.280Z,42.58
2022-12-03T21:59:57.629Z,42.38
2022-12-03T22:02:24.039Z,43.13
2022-12-03T22:04:50.787Z,50.60
2022-12-03T22:07:17.116Z,38.83
2022-12-03T22:09:43.517Z,44.85
2022-12-03T22:12:09.865Z,45.95
2022-12-03T22:14:36.237Z,45.58
2022-12-03T22:17:02.521Z,48.63
2022-12-03T22:19:28.872Z,46.80
2022-12-03T22:21:55.215Z,48.20
2022-12-03T22:24:21.545Z,41.75
2022-12-03T22:26:47.842Z,43.75
2022-12-03T22:29:14.953Z,44.75
2022-12-03T22:31:41.238Z,41.40
2022-12-03T22:34:07.510Z,46.97
2022-12-03T22:36:33.795Z,47.17
2022-12-03T22:39:00.035Z,45.80
2022-12-03T22:41:26.319Z,43.42
2022-12-03T22:43:52.598Z,42.17
2022-12-03T22:46:19.006Z,38.22
2022-12-03T22:48:47.298Z,42.83
2022-12-03T22:51:23.926Z,44.63
2022-12-03T22:53:54.467Z,34.95
2022-12-03T22:58:48.558Z,36.75
2022-12-03T23:01:21.785Z,44.72
2022-12-03T23:03:48.341Z,40.97
2022-12-03T23:06:14.682Z,40.92
2022-12-03T23:08:41.145Z,40.45
2022-12-03T23:11:07.764Z,36.72
2022-12-03T23:13:34.051Z,35.15
2022-12-03T23:16:00.424Z,39.47
2022-12-03T23:18:26.905Z,46.22
2022-12-03T23:20:54.549Z,39.08
2022-12-03T23:23:21.784Z,36.00
2022-12-03T23:26:00.843Z,43.15
2022-12-03T23:28:27.777Z,37.65
2022-12-03T23:30:54.309Z,40.88
2022-12-03T23:33:20.625Z,43.40
2022-12-03T23:35:46.942Z,35.42
2022-12-03T23:38:13.226Z,35.55
2022-12-03T23:40:43.463Z,35.75
2022-12-03T23:43:12.877Z,41.20
2022-12-03T23:45:39.278Z,40.40
2022-12-03T23:48:05.744Z,44.03
2022-12-03T23:50:32.033Z,38.40
2022-12-03T23:52:58.754Z,37.63
2022-12-03T23:55:25.078Z,39.63
2022-12-03T23:57:51.370Z,44.35
